createdAt,value
2022-09-18T00:00:56.345Z,2.30
2022-09-18T00:04:07.622Z,2.40
2022-09-18T00:07:15.880Z,2.30
2022-09-18T00:10:24.175Z,2.30
2022-09-18T00:13:32.337Z,2.80
2022-09-18T00:16:41.194Z,2.30
2022-09-18T00:19:50.523Z,2.20
2022-09-18T00:22:58.593Z,2.20
2022-09-18T00:26:08.195Z,2.20
2022-09-18T00:29:18.110Z,2.10
2022-09-18T00:35:32.926Z,2.40
2022-09-18T00:38:41.649Z,2.10
2022-09-18T00:41:50.778Z,2.40
2022-09-18T00:44:58.778Z,2.40
2022-09-18T00:48:07.097Z,2.30
2022-09-18T00:51:16.229Z,2.00
2022-09-18T00:54:30.772Z,2.50
2022-09-18T00:57:45.181Z,2.30
2022-09-18T01:00:55.529Z,2.10
2022-09-18T01:04:04.033Z,2.30
2022-09-18T01:07:22.391Z,2.30
2022-09-18T01:10:51.993Z,2.60
2022-09-18T01:14:15.034Z,2.20
2022-09-18T01:17:33.054Z,2.00
2022-09-18T01:21:16.029Z,2.30
2022-09-18T01:24:46.168Z,2.10
2022-09-18T01:28:20.898Z,1.90
2022-09-18T01:31:36.013Z,2.10
2022-09-18T01:34:54.032Z,2.00
2022-09-18T01:38:10.221Z,2.10
2022-09-18T01:41:23.745Z,2.30
2022-09-18T01:44:35.203Z,2.10
2022-09-18T01:47:51.961Z,2.30
2022-09-18T01:51:07.733Z,2.10
2022-09-18T01:54:22.060Z,2.10
2022-09-18T01:57:39.348Z,2.10
2022-09-18T02:00:56.355Z,1.90
2022-09-18T02:04:10.029Z,2.20
2022-09-18T02:07:25.584Z,2.00
2022-09-18T02:10:48.814Z,2.10
2022-09-18T02:14:05.886Z,2.20
2022-09-18T02:17:23.301Z,2.10
2022-09-18T02:20:35.701Z,2.10
2022-09-18T02:23:46.351Z,1.80
2022-09-18T02:26:57.323Z,1.90
2022-09-18T02:30:08.614Z,1.90
2022-09-18T02:33:35.356Z,2.00
2022-09-18T02:37:07.202Z,1.80
2022-09-18T02:40:39.436Z,2.00
2022-09-18T02:43:58.727Z,2.00
2022-09-18T02:47:20.295Z,2.00
2022-09-18T02:50:41.308Z,2.10
2022-09-18T02:53:57.929Z,1.90
2022-09-18T02:57:12.027Z,1.80
2022-09-18T03:00:21.305Z,1.90
2022-09-18T03:03:34.654Z,1.70
2022-09-18T03:06:42.745Z,1.90
2022-09-18T03:09:50.969Z,1.80
2022-09-18T03:12:58.699Z,1.70
2022-09-18T03:16:07.468Z,1.70
2022-09-18T03:19:15.371Z,1.90
2022-09-18T03:22:23.377Z,1.80
2022-09-18T03:25:31.235Z,2.10
2022-09-18T03:28:39.230Z,2.00
2022-09-18T03:31:47.899Z,1.80
2022-09-18T03:34:57.134Z,2.00
2022-09-18T03:38:05.521Z,1.80
2022-09-18T03:41:13.514Z,1.90
2022-09-18T03:44:21.274Z,2.00
2022-09-18T03:47:36.161Z,2.10
2022-09-18T03:50:45.095Z,2.10
2022-09-18T03:53:53.720Z,2.10
2022-09-18T03:57:01.921Z,2.30
2022-09-18T04:00:13.255Z,2.20
2022-09-18T04:03:21.026Z,2.00
2022-09-18T04:06:29.124Z,2.30
2022-09-18T04:09:36.941Z,2.10
2022-09-18T04:12:47.908Z,2.10
2022-09-18T04:15:55.950Z,2.10
2022-09-18T04:19:04.545Z,2.10
2022-09-18T04:22:12.805Z,2.10
2022-09-18T04:25:21.313Z,2.10
2022-09-18T04:28:29.370Z,2.20
2022-09-18T04:31:37.797Z,2.20
2022-09-18T04:34:46.524Z,2.10
2022-09-18T04:37:54.419Z,2.20
2022-09-18T04:41:03.350Z,2.10
2022-09-18T04:44:11.665Z,2.30
2022-09-18T04:47:19.799Z,2.00
2022-09-18T04:50:27.928Z,2.20
2022-09-18T04:53:38.248Z,2.40
2022-09-18T04:56:46.641Z,2.10
2022-09-18T04:59:54.434Z,1.90
2022-09-18T05:03:02.707Z,2.00
2022-09-18T05:06:12.206Z,2.20
2022-09-18T05:09:20.475Z,2.00
2022-09-18T05:12:28.355Z,2.10
2022-09-18T05:15:36.365Z,1.80
2022-09-18T05:18:44.903Z,1.90
2022-09-18T05:21:55.002Z,2.10
2022-09-18T05:25:02.822Z,2.00
2022-09-18T05:28:11.092Z,2.00
2022-09-18T05:31:19.529Z,1.80
2022-09-18T05:34:27.318Z,1.90
2022-09-18T05:37:35.094Z,1.70
2022-09-18T05:40:43.533Z,2.00
2022-09-18T05:43:51.530Z,1.80
2022-09-18T05:46:59.598Z,1.80
2022-09-18T05:50:08.882Z,1.70
2022-09-18T05:53:19.346Z,1.80
2022-09-18T05:56:27.368Z,1.70
2022-09-18T05:59:35.844Z,2.00
2022-09-18T06:02:43.712Z,1.80
2022-09-18T06:05:57.959Z,1.70
2022-09-18T06:09:06.785Z,2.00
2022-09-18T06:12:14.903Z,3.10
2022-09-18T06:15:22.673Z,2.00
2022-09-18T06:18:30.863Z,2.30
2022-09-18T06:21:38.848Z,2.20
2022-09-18T06:24:50.630Z,2.00
2022-09-18T06:28:01.207Z,1.70
2022-09-18T06:31:11.234Z,1.90
2022-09-18T06:34:19.285Z,1.70
2022-09-18T06:37:27.899Z,1.80
2022-09-18T06:40:37.345Z,1.60
2022-09-18T06:43:45.707Z,1.40
2022-09-18T06:46:53.591Z,1.50
2022-09-18T06:50:01.882Z,1.50
2022-09-18T06:53:12.822Z,1.50
2022-09-18T06:56:21.688Z,1.40
2022-09-18T06:59:29.582Z,1.50
2022-09-18T07:02:37.825Z,1.50
2022-09-18T07:05:46.973Z,1.50
2022-09-18T07:08:59.459Z,1.50
2022-09-18T07:12:08.385Z,1.40
2022-09-18T07:15:17.061Z,1.40
2022-09-18T07:18:25.047Z,1.30
2022-09-18T07:21:33.314Z,1.30
2022-09-18T07:24:41.245Z,1.50
2022-09-18T07:27:50.089Z,1.60
2022-09-18T07:30:58.176Z,1.40
2022-09-18T07:34:07.322Z,1.60
2022-09-18T07:37:15.423Z,1.50
2022-09-18T07:40:23.495Z,1.30
2022-09-18T07:43:32.134Z,1.60
2022-09-18T07:46:40.301Z,1.40
2022-09-18T07:49:48.816Z,1.40
2022-09-18T07:52:59.748Z,1.40
2022-09-18T07:56:13.074Z,1.40
2022-09-18T07:59:20.976Z,1.60
2022-09-18T08:02:29.259Z,1.70
2022-09-18T08:05:37.785Z,1.40
2022-09-18T08:08:50.779Z,1.40
2022-09-18T08:12:04.415Z,1.40
2022-09-18T08:15:13.784Z,1.40
2022-09-18T08:18:33.737Z,1.50
2022-09-18T08:22:10.792Z,1.40
2022-09-18T08:25:33.277Z,1.40
2022-09-18T08:29:10.149Z,1.40
2022-09-18T08:32:24.143Z,1.40
2022-09-18T08:36:16.922Z,1.60
2022-09-18T08:39:45.912Z,1.60
2022-09-18T08:43:16.042Z,1.40
2022-09-18T08:46:33.763Z,1.60
2022-09-18T08:49:52.062Z,1.40
2022-09-18T08:53:17.095Z,1.70
2022-09-18T08:56:31.544Z,1.50
2022-09-18T08:59:51.042Z,1.50
2022-09-18T09:03:11.949Z,1.40
2022-09-18T09:06:48.656Z,1.50
2022-09-18T09:10:22.920Z,1.40
2022-09-18T09:14:55.970Z,1.40
2022-09-18T09:18:21.471Z,1.40
2022-09-18T09:21:54.630Z,1.50
2022-09-18T09:25:16.752Z,1.50
2022-09-18T09:28:32.724Z,1.60
2022-09-18T09:31:46.409Z,1.40
2022-09-18T09:35:02.352Z,1.40
2022-09-18T09:38:31.067Z,1.40
2022-09-18T09:41:47.177Z,1.30
2022-09-18T09:45:05.439Z,1.30
2022-09-18T09:48:22.740Z,1.40
2022-09-18T09:51:44.923Z,1.70
2022-09-18T09:54:59.315Z,1.50
2022-09-18T09:58:34.765Z,1.30
2022-09-18T10:01:57.076Z,1.50
2022-09-18T10:05:22.828Z,1.40
2022-09-18T10:08:41.174Z,1.30
2022-09-18T10:11:59.684Z,1.20
2022-09-18T10:15:17.930Z,1.10
2022-09-18T10:18:30.759Z,1.40
2022-09-18T10:21:42.833Z,1.20
2022-09-18T10:25:00.342Z,1.30
2022-09-18T10:28:12.096Z,1.30
2022-09-18T10:31:21.032Z,1.30
2022-09-18T10:34:45.744Z,1.80
2022-09-18T10:37:57.344Z,1.40
2022-09-18T10:41:28.855Z,1.60
2022-09-18T10:44:42.072Z,1.60
2022-09-18T10:47:51.322Z,1.60
2022-09-18T10:51:06.023Z,1.80
2022-09-18T10:54:23.311Z,1.80
2022-09-18T10:57:36.352Z,1.70
2022-09-18T11:00:50.319Z,1.70
2022-09-18T11:04:08.309Z,1.40
2022-09-18T11:07:16.904Z,1.30
2022-09-18T11:10:28.586Z,1.60
2022-09-18T11:13:41.663Z,1.20
2022-09-18T11:16:56.521Z,1.30
2022-09-18T11:20:09.146Z,1.60
2022-09-18T11:23:31.218Z,1.50
2022-09-18T11:26:39.093Z,1.20
2022-09-18T11:29:47.756Z,1.40
2022-09-18T11:33:02.716Z,1.40
2022-09-18T11:36:17.697Z,1.30
2022-09-18T11:39:35.592Z,1.20
2022-09-18T11:42:52.370Z,1.30
2022-09-18T11:46:13.738Z,1.30
2022-09-18T11:49:27.912Z,1.30
2022-09-18T11:52:42.063Z,1.20
2022-09-18T11:55:59.555Z,1.00
2022-09-18T11:59:20.487Z,1.20
2022-09-18T12:02:41.365Z,1.20
2022-09-18T12:05:59.837Z,1.20
2022-09-18T12:09:15.108Z,1.10
2022-09-18T12:12:29.163Z,1.30
2022-09-18T12:15:40.997Z,1.00
2022-09-18T12:19:02.861Z,1.10
2022-09-18T12:22:18.122Z,1.20
2022-09-18T12:25:38.417Z,1.10
2022-09-18T12:29:04.681Z,1.10
2022-09-18T12:32:32.889Z,1.20
2022-09-18T12:36:33.843Z,1.30
2022-09-18T12:40:12.635Z,1.20
2022-09-18T12:44:16.343Z,1.30
2022-09-18T12:47:45.980Z,1.10
2022-09-18T12:55:02.234Z,1.00
2022-09-18T12:58:32.058Z,1.30
2022-09-18T13:01:47.244Z,1.10
2022-09-18T13:05:03.102Z,1.70
2022-09-18T13:08:21.422Z,1.50
2022-09-18T13:11:40.385Z,1.00
2022-09-18T13:14:55.594Z,1.10
2022-09-18T13:18:23.793Z,1.10
2022-09-18T13:21:37.849Z,1.10
2022-09-18T13:24:51.069Z,1.30
2022-09-18T13:28:01.260Z,1.20
2022-09-18T13:31:31.999Z,1.40
2022-09-18T13:34:51.324Z,1.30
2022-09-18T13:38:20.367Z,1.20
2022-09-18T13:41:29.656Z,1.60
2022-09-18T13:44:40.829Z,1.20
2022-09-18T13:48:08.473Z,1.30
2022-09-18T13:51:29.523Z,1.30
2022-09-18T13:54:39.741Z,1.10
2022-09-18T13:57:48.801Z,1.30
2022-09-18T14:00:57.116Z,1.20
2022-09-18T14:04:25.649Z,1.20
2022-09-18T14:08:00.409Z,1.20
2022-09-18T14:11:15.433Z,1.10
2022-09-18T14:14:27.437Z,1.10
2022-09-18T14:17:38.859Z,1.10
2022-09-18T14:20:52.736Z,1.20
2022-09-18T14:24:42.088Z,1.50
2022-09-18T14:28:00.996Z,1.40
2022-09-18T14:31:25.253Z,1.00
2022-09-18T14:34:40.645Z,1.30
2022-09-18T14:37:49.191Z,0.90
2022-09-18T14:41:09.257Z,1.20
2022-09-18T14:44:20.828Z,1.10
2022-09-18T14:47:30.789Z,1.00
2022-09-18T14:50:40.052Z,1.20
2022-09-18T14:53:51.290Z,1.50
2022-09-18T14:57:03.765Z,1.00
2022-09-18T15:00:20.353Z,1.00
2022-09-18T15:03:34.417Z,1.20
2022-09-18T15:07:40.042Z,1.80
2022-09-18T15:10:52.342Z,1.40
2022-09-18T15:14:01.214Z,1.40
2022-09-18T15:17:20.399Z,1.60
2022-09-18T15:20:32.728Z,1.50
2022-09-18T15:23:41.339Z,1.40
2022-09-18T15:26:56.374Z,2.30
2022-09-18T15:30:09.802Z,1.90
2022-09-18T15:33:25.790Z,1.90
2022-09-18T15:36:38.609Z,1.30
2022-09-18T15:39:52.260Z,1.40
2022-09-18T15:43:03.849Z,1.60
2022-09-18T15:46:15.685Z,1.40
2022-09-18T15:49:36.298Z,1.40
2022-09-18T15:52:48.086Z,1.30
2022-09-18T15:56:20.972Z,1.30
2022-09-18T15:59:35.418Z,1.20
2022-09-18T16:02:43.475Z,1.20
2022-09-18T16:05:58.885Z,1.20
2022-09-18T16:09:08.980Z,1.10
2022-09-18T16:12:43.385Z,1.20
2022-09-18T16:16:23.141Z,1.20
2022-09-18T16:19:32.013Z,1.00
2022-09-18T16:22:46.482Z,1.20
2022-09-18T16:26:10.631Z,1.30
2022-09-18T16:29:24.565Z,1.20
2022-09-18T16:32:32.626Z,1.30
2022-09-18T16:35:41.200Z,1.80
2022-09-18T16:38:52.089Z,1.40
2022-09-18T16:42:00.331Z,1.70
2022-09-18T16:45:10.941Z,1.90
2022-09-18T16:48:20.060Z,1.50
2022-09-18T16:51:27.864Z,1.50
2022-09-18T16:54:35.900Z,1.40
2022-09-18T16:57:44.204Z,1.50
2022-09-18T17:00:53.193Z,1.60
2022-09-18T17:04:01.117Z,1.80
2022-09-18T17:07:09.379Z,1.60
2022-09-18T17:10:18.094Z,1.60
2022-09-18T17:13:26.182Z,1.70
2022-09-18T17:16:44.534Z,1.50
2022-09-18T17:19:53.412Z,1.90
2022-09-18T17:23:02.173Z,1.80
2022-09-18T17:26:12.969Z,1.60
2022-09-18T17:29:21.367Z,1.60
2022-09-18T17:32:30.515Z,1.60
2022-09-18T17:35:39.730Z,1.70
2022-09-18T17:41:55.962Z,1.40
2022-09-18T17:45:03.988Z,1.60
2022-09-18T17:48:12.074Z,1.60
2022-09-18T17:51:20.972Z,1.70
2022-09-18T17:54:29.213Z,1.40
2022-09-18T17:57:39.805Z,1.40
2022-09-18T18:00:47.971Z,1.40
2022-09-18T18:03:57.411Z,1.40
2022-09-18T18:07:06.223Z,1.30
2022-09-18T18:10:14.639Z,1.50
2022-09-18T18:13:22.493Z,1.40
2022-09-18T18:16:32.906Z,1.40
2022-09-18T18:19:41.735Z,1.50
2022-09-18T18:22:49.836Z,1.50
2022-09-18T18:26:01.524Z,1.50
2022-09-18T18:29:11.532Z,2.80
2022-09-18T18:32:20.190Z,1.60
2022-09-18T18:35:29.010Z,1.50
2022-09-18T18:38:36.852Z,1.60
2022-09-18T18:41:46.117Z,1.70
2022-09-18T18:44:54.221Z,1.60
2022-09-18T18:48:04.929Z,1.70
2022-09-18T18:51:16.554Z,2.00
2022-09-18T18:54:26.211Z,1.70
2022-09-18T18:57:35.235Z,1.50
2022-09-18T19:00:44.028Z,1.80
2022-09-18T19:03:57.949Z,1.60
2022-09-18T19:07:06.671Z,1.50
2022-09-18T19:10:17.036Z,1.50
2022-09-18T19:13:25.262Z,1.50
2022-09-18T19:16:34.249Z,1.50
2022-09-18T19:19:42.424Z,1.80
2022-09-18T19:22:56.942Z,1.70
2022-09-18T19:26:05.642Z,1.50
2022-09-18T19:29:17.677Z,1.80
2022-09-18T19:32:25.819Z,1.60
2022-09-18T19:35:36.133Z,1.50
2022-09-18T19:38:45.101Z,1.70
2022-09-18T19:42:00.414Z,1.80
2022-09-18T19:45:15.875Z,1.60
2022-09-18T19:48:28.315Z,1.70
2022-09-18T19:51:38.776Z,1.70
2022-09-18T19:54:47.288Z,1.50
2022-09-18T19:57:59.361Z,1.50
2022-09-18T20:01:12.183Z,1.60
2022-09-18T20:04:20.060Z,1.90
2022-09-18T20:07:28.271Z,1.50
2022-09-18T20:10:36.815Z,2.60
2022-09-18T20:13:45.326Z,1.80
2022-09-18T20:16:54.853Z,1.70
2022-09-18T20:20:04.537Z,1.50
2022-09-18T20:23:14.528Z,1.70
2022-09-18T20:26:22.791Z,1.70
2022-09-18T20:29:31.319Z,1.40
2022-09-18T20:32:40.017Z,1.40
2022-09-18T20:35:59.317Z,1.40
2022-09-18T20:39:07.675Z,1.40
2022-09-18T20:42:15.427Z,1.60
2022-09-18T20:45:23.796Z,1.50
2022-09-18T20:48:38.074Z,1.70
2022-09-18T20:51:47.337Z,1.40
2022-09-18T20:54:55.245Z,1.60
2022-09-18T20:58:04.836Z,1.50
2022-09-18T21:01:15.525Z,1.70
2022-09-18T21:04:24.556Z,1.60
2022-09-18T21:07:33.493Z,1.60
2022-09-18T21:10:47.109Z,1.60
2022-09-18T21:13:57.958Z,1.60
2022-09-18T21:17:08.819Z,1.70
2022-09-18T21:20:17.028Z,2.00
2022-09-18T21:23:42.890Z,1.90
2022-09-18T21:26:53.361Z,2.00
2022-09-18T21:30:01.308Z,1.80
2022-09-18T21:33:11.143Z,2.00
2022-09-18T21:36:19.161Z,2.10
2022-09-18T21:39:28.433Z,1.70
2022-09-18T21:42:38.517Z,1.70
2022-09-18T21:45:46.779Z,1.60
2022-09-18T21:48:56.163Z,1.40
2022-09-18T21:52:07.970Z,1.70
2022-09-18T21:55:15.971Z,1.60
2022-09-18T21:58:23.866Z,1.50
2022-09-18T22:01:33.576Z,1.80
2022-09-18T22:07:50.045Z,1.50
2022-09-18T22:11:03.276Z,1.30
2022-09-18T22:14:16.593Z,1.50
2022-09-18T22:17:25.436Z,1.50
2022-09-18T22:20:36.057Z,1.30
2022-09-18T22:23:44.184Z,1.40
2022-09-18T22:26:56.051Z,1.30
2022-09-18T22:30:04.015Z,1.50
2022-09-18T22:33:12.077Z,1.40
2022-09-18T22:36:20.382Z,1.50
2022-09-18T22:39:29.031Z,1.40
2022-09-18T22:42:36.902Z,1.30
2022-09-18T22:45:45.005Z,1.20
2022-09-18T22:48:53.636Z,1.30
2022-09-18T22:52:01.599Z,1.30
2022-09-18T22:55:10.579Z,1.30
2022-09-18T22:58:18.736Z,1.20
2022-09-18T23:01:32.389Z,1.30
2022-09-18T23:04:41.073Z,1.30
2022-09-18T23:07:51.208Z,1.40
2022-09-18T23:14:08.091Z,1.50
2022-09-18T23:17:16.131Z,1.20
2022-09-18T23:20:24.054Z,1.40
2022-09-18T23:23:34.876Z,1.30
2022-09-18T23:26:45.581Z,1.50
2022-09-18T23:29:53.460Z,1.30
2022-09-18T23:33:02.299Z,1.50
2022-09-18T23:36:13.964Z,1.40
2022-09-18T23:39:26.981Z,1.30
2022-09-18T23:42:34.752Z,1.30
2022-09-18T23:45:42.520Z,1.80
2022-09-18T23:48:55.273Z,1.30
2022-09-18T23:52:03.486Z,1.30
2022-09-18T23:55:12.139Z,1.30
2022-09-18T23:58:20.877Z,1.30
